createdAt,value
2023-04-14T00:00:07.580Z,1005.41
2023-04-14T00:01:07.508Z,1005.42
2023-04-14T00:02:07.579Z,1005.40
2023-04-14T00:03:07.843Z,1005.41
2023-04-14T00:04:07.474Z,1005.37
2023-04-14T00:05:07.412Z,1005.34
2023-04-14T00:06:07.290Z,1005.34
2023-04-14T00:07:07.227Z,1005.31
2023-04-14T00:08:07.180Z,1005.32
2023-04-14T00:09:07.132Z,1005.34
2023-04-14T00:10:07.092Z,1005.33
2023-04-14T00:11:07.092Z,1005.32
2023-04-14T00:12:07.084Z,1005.31
2023-04-14T00:13:06.948Z,1005.34
2023-04-14T00:14:06.898Z,1005.31
2023-04-14T00:15:06.850Z,1005.31
2023-04-14T00:16:06.826Z,1005.29
2023-04-14T00:17:06.924Z,1005.28
2023-04-14T00:18:06.720Z,1005.30
2023-04-14T00:19:06.684Z,1005.32
2023-04-14T00:20:06.639Z,1005.29
2023-04-14T00:21:06.574Z,1005.30
2023-04-14T00:22:06.560Z,1005.31
2023-04-14T00:23:06.471Z,1005.34
2023-04-14T00:26:33.060Z,1005.37
2023-04-14T00:27:32.984Z,1005.40
2023-04-14T00:28:32.943Z,1005.37
2023-04-14T00:29:32.885Z,1005.38
2023-04-14T00:30:32.850Z,1005.39
2023-04-14T00:31:32.912Z,1005.36
2023-04-14T00:32:32.746Z,1005.38
2023-04-14T00:33:32.689Z,1005.42
2023-04-14T00:34:32.660Z,1005.44
2023-04-14T00:35:32.604Z,1005.43
2023-04-14T00:36:32.549Z,1005.47
2023-04-14T00:37:32.533Z,1005.48
2023-04-14T00:38:32.458Z,1005.47
2023-04-14T00:39:32.398Z,1005.45
2023-04-14T00:40:32.358Z,1005.49
2023-04-14T00:41:32.301Z,1005.47
2023-04-14T00:42:32.263Z,1005.47
2023-04-14T00:43:32.206Z,1005.48
2023-04-14T00:44:32.168Z,1005.49
2023-04-14T00:45:32.107Z,1005.47
2023-04-14T00:46:32.110Z,1005.48
2023-04-14T00:47:32.049Z,1005.52
2023-04-14T00:48:31.973Z,1005.50
2023-04-14T00:49:31.911Z,1005.51
2023-04-14T00:50:31.868Z,1005.53
2023-04-14T00:51:31.827Z,1005.53
2023-04-14T00:52:31.765Z,1005.59
2023-04-14T00:53:31.717Z,1005.56
2023-04-14T00:54:31.666Z,1005.59
2023-04-14T00:55:31.620Z,1005.58
2023-04-14T00:56:31.570Z,1005.62
2023-04-14T00:57:31.527Z,1005.63
2023-04-14T00:58:31.470Z,1005.65
2023-04-14T00:59:31.438Z,1005.65
2023-04-14T01:00:31.372Z,1005.69
2023-04-14T01:01:31.334Z,1005.69
2023-04-14T01:02:31.576Z,1005.63
2023-04-14T01:03:31.391Z,1005.71
2023-04-14T01:04:40.770Z,1005.70
2023-04-14T01:05:31.144Z,1005.70
2023-04-14T01:06:31.076Z,1005.71
2023-04-14T01:07:31.028Z,1005.71
2023-04-14T01:08:30.988Z,1005.72
2023-04-14T01:09:30.930Z,1005.74
2023-04-14T01:10:30.889Z,1005.73
2023-04-14T01:11:30.837Z,1005.75
2023-04-14T01:12:30.781Z,1005.74
2023-04-14T01:13:30.730Z,1005.74
2023-04-14T01:14:30.684Z,1005.74
2023-04-14T01:15:30.631Z,1005.77
2023-04-14T01:16:30.708Z,1005.73
2023-04-14T01:17:30.564Z,1005.77
2023-04-14T01:18:30.486Z,1005.75
2023-04-14T01:19:30.473Z,1005.75
2023-04-14T01:20:30.394Z,1005.70
2023-04-14T01:21:30.338Z,1005.73
2023-04-14T01:22:30.299Z,1005.71
2023-04-14T01:23:30.258Z,1005.68
2023-04-14T01:24:30.203Z,1005.73
2023-04-14T01:25:30.145Z,1005.72
2023-04-14T01:26:30.114Z,1005.75
2023-04-14T01:27:30.038Z,1005.73
2023-04-14T01:28:29.995Z,1005.74
2023-04-14T01:29:29.942Z,1005.77
2023-04-14T01:30:29.898Z,1005.77
2023-04-14T01:31:29.974Z,1005.77
2023-04-14T01:32:29.873Z,1005.79
2023-04-14T01:33:29.794Z,1005.75
2023-04-14T01:34:29.706Z,1005.82
2023-04-14T01:35:29.667Z,1005.78
2023-04-14T01:36:29.597Z,1005.81
2023-04-14T01:37:29.547Z,1005.80
2023-04-14T01:38:29.519Z,1005.81
2023-04-14T01:39:29.452Z,1005.79
2023-04-14T01:40:29.398Z,1005.80
2023-04-14T01:41:29.344Z,1005.78
2023-04-14T01:42:29.299Z,1005.83
2023-04-14T01:43:29.249Z,1005.80
2023-04-14T01:44:29.198Z,1005.82
2023-04-14T01:45:29.211Z,1005.82
2023-04-14T01:46:29.098Z,1005.85
2023-04-14T01:47:29.087Z,1005.84
2023-04-14T01:48:29.012Z,1005.77
2023-04-14T01:49:28.996Z,1005.81
2023-04-14T01:50:28.906Z,1005.84
2023-04-14T01:51:28.868Z,1005.83
2023-04-14T01:52:28.816Z,1005.81
2023-04-14T01:53:28.752Z,1005.78
2023-04-14T01:54:28.709Z,1005.75
2023-04-14T01:55:28.689Z,1005.80
2023-04-14T01:56:28.611Z,1005.79
2023-04-14T01:57:28.553Z,1005.79
2023-04-14T01:58:28.513Z,1005.80
2023-04-14T01:59:28.453Z,1005.77
2023-04-14T02:00:28.409Z,1005.77
2023-04-14T02:01:28.377Z,1005.80
2023-04-14T02:02:28.491Z,1005.81
2023-04-14T02:03:28.339Z,1005.78
2023-04-14T02:04:28.206Z,1005.81
2023-04-14T02:05:28.159Z,1005.79
2023-04-14T02:06:28.107Z,1005.79
2023-04-14T02:07:28.082Z,1005.84
2023-04-14T02:08:28.007Z,1005.82
2023-04-14T02:09:27.963Z,1005.79
2023-04-14T02:10:27.916Z,1005.84
2023-04-14T02:11:27.856Z,1005.83
2023-04-14T02:12:27.808Z,1005.86
2023-04-14T02:13:27.766Z,1005.85
2023-04-14T02:14:27.716Z,1005.88
2023-04-14T02:15:27.665Z,1005.91
2023-04-14T02:16:27.699Z,1005.89
2023-04-14T02:17:27.579Z,1005.88
2023-04-14T02:18:27.506Z,1005.89
2023-04-14T02:19:27.460Z,1005.90
2023-04-14T02:20:27.405Z,1005.88
2023-04-14T02:21:27.354Z,1005.86
2023-04-14T02:22:27.312Z,1005.89
2023-04-14T02:23:27.294Z,1005.89
2023-04-14T02:24:27.212Z,1005.87
2023-04-14T02:25:27.158Z,1005.90
2023-04-14T02:26:27.109Z,1005.88
2023-04-14T02:27:27.060Z,1005.90
2023-04-14T02:28:27.009Z,1005.91
2023-04-14T02:29:26.963Z,1005.91
2023-04-14T02:30:26.920Z,1005.92
2023-04-14T02:31:26.859Z,1005.94
2023-04-14T02:32:26.822Z,1005.95
2023-04-14T02:33:26.761Z,1005.95
2023-04-14T02:34:26.776Z,1005.95
2023-04-14T02:35:26.664Z,1005.99
2023-04-14T02:36:26.611Z,1006.01
2023-04-14T02:37:26.559Z,1005.96
2023-04-14T02:38:26.516Z,1005.95
2023-04-14T02:39:26.482Z,1005.99
2023-04-14T02:40:26.412Z,1005.98
2023-04-14T02:41:26.377Z,1006.00
2023-04-14T02:42:26.310Z,1005.98
2023-04-14T02:43:26.258Z,1005.97
2023-04-14T02:44:26.223Z,1005.96
2023-04-14T02:45:26.171Z,1006.00
2023-04-14T02:46:26.206Z,1005.96
2023-04-14T02:47:26.076Z,1006.00
2023-04-14T02:48:26.017Z,1005.96
2023-04-14T02:49:25.970Z,1006.00
2023-04-14T02:50:25.921Z,1006.01
2023-04-14T02:51:25.866Z,1006.03
2023-04-14T02:52:25.819Z,1006.01
2023-04-14T02:53:25.789Z,1006.03
2023-04-14T02:54:25.719Z,1006.00
2023-04-14T02:55:25.687Z,1006.00
2023-04-14T02:56:25.619Z,1006.02
2023-04-14T02:57:25.570Z,1006.03
2023-04-14T02:58:25.520Z,1005.99
2023-04-14T02:59:25.469Z,1006.00
2023-04-14T03:00:25.430Z,1005.99
2023-04-14T03:01:25.398Z,1006.02
2023-04-14T03:02:25.408Z,1005.98
2023-04-14T03:03:25.319Z,1006.01
2023-04-14T03:04:25.249Z,1005.97
2023-04-14T03:05:25.179Z,1005.97
2023-04-14T03:06:25.122Z,1005.97
2023-04-14T03:07:25.072Z,1005.94
2023-04-14T03:08:25.022Z,1005.97
2023-04-14T03:09:24.977Z,1005.97
2023-04-14T03:10:24.922Z,1006.00
2023-04-14T03:11:24.922Z,1005.97
2023-04-14T03:12:24.820Z,1006.00
2023-04-14T03:13:24.770Z,1006.02
2023-04-14T03:14:24.727Z,1006.01
2023-04-14T03:16:24.658Z,1006.00
2023-04-14T03:17:24.612Z,1006.03
2023-04-14T03:18:24.538Z,1006.05
2023-04-14T03:19:24.469Z,1006.03
2023-04-14T03:20:24.418Z,1006.03
2023-04-14T03:21:24.583Z,1006.04
2023-04-14T03:22:24.320Z,1006.03
2023-04-14T03:23:24.273Z,1006.03
2023-04-14T03:24:24.216Z,1006.03
2023-04-14T03:25:24.174Z,1006.01
2023-04-14T03:26:24.121Z,1006.03
2023-04-14T03:27:24.089Z,1005.97
2023-04-14T03:28:24.020Z,1006.00
2023-04-14T03:29:23.969Z,1006.04
2023-04-14T03:30:23.918Z,1005.99
2023-04-14T03:31:23.925Z,1005.98
2023-04-14T03:32:23.895Z,1006.01
2023-04-14T03:33:23.776Z,1006.04
2023-04-14T03:34:23.715Z,1006.05
2023-04-14T03:35:23.666Z,1006.04
2023-04-14T03:36:23.613Z,1006.08
2023-04-14T03:37:23.566Z,1006.06
2023-04-14T03:38:23.516Z,1006.05
2023-04-14T03:39:23.465Z,1006.08
2023-04-14T03:40:23.414Z,1006.06
2023-04-14T03:41:23.372Z,1006.05
2023-04-14T03:42:23.314Z,1006.06
2023-04-14T03:43:23.798Z,1006.06
2023-04-14T03:44:23.228Z,1006.06
2023-04-14T03:45:23.169Z,1006.06
2023-04-14T03:46:23.122Z,1006.06
2023-04-14T03:47:23.120Z,1006.10
2023-04-14T03:48:23.012Z,1006.09
2023-04-14T03:49:22.972Z,1006.11
2023-04-14T03:50:22.926Z,1006.13
2023-04-14T03:52:22.815Z,1006.14
2023-04-14T03:53:22.774Z,1006.09
2023-04-14T03:54:22.718Z,1006.13
2023-04-14T03:55:22.661Z,1006.16
2023-04-14T03:56:22.616Z,1006.14
2023-04-14T03:57:22.561Z,1006.16
2023-04-14T03:58:22.508Z,1006.17
2023-04-14T03:59:22.477Z,1006.11
2023-04-14T04:00:22.412Z,1006.14
2023-04-14T04:01:22.360Z,1006.16
2023-04-14T04:02:22.560Z,1006.14
2023-04-14T04:03:22.485Z,1006.18
2023-04-14T04:04:22.321Z,1006.18
2023-04-14T04:05:22.160Z,1006.19
2023-04-14T04:06:22.119Z,1006.18
2023-04-14T04:07:22.057Z,1006.17
2023-04-14T04:08:22.010Z,1006.20
2023-04-14T04:09:21.962Z,1006.16
2023-04-14T04:10:21.912Z,1006.11
2023-04-14T04:11:21.882Z,1006.14
2023-04-14T04:12:21.820Z,1006.18
2023-04-14T04:13:21.760Z,1006.14
2023-04-14T04:14:21.715Z,1006.18
2023-04-14T04:15:21.678Z,1006.15
2023-04-14T04:16:21.664Z,1006.23
2023-04-14T04:17:21.598Z,1006.18
2023-04-14T04:18:21.507Z,1006.25
2023-04-14T04:19:21.463Z,1006.20
2023-04-14T04:20:21.409Z,1006.25
2023-04-14T04:21:21.355Z,1006.22
2023-04-14T04:22:21.347Z,1006.26
2023-04-14T04:23:21.263Z,1006.26
2023-04-14T04:24:21.212Z,1006.29
2023-04-14T04:25:21.168Z,1006.32
2023-04-14T04:26:21.111Z,1006.33
2023-04-14T04:28:21.004Z,1006.35
2023-04-14T04:30:20.905Z,1006.36
2023-04-14T04:31:20.874Z,1006.35
2023-04-14T04:32:20.955Z,1006.33
2023-04-14T04:34:46.541Z,1006.29
2023-04-14T04:35:46.488Z,1006.38
2023-04-14T04:36:46.442Z,1006.34
2023-04-14T04:38:46.333Z,1006.37
2023-04-14T04:39:46.286Z,1006.35
2023-04-14T04:40:46.241Z,1006.39
2023-04-14T04:41:46.232Z,1006.37
2023-04-14T04:42:46.241Z,1006.36
2023-04-14T04:43:46.164Z,1006.37
2023-04-14T04:44:46.080Z,1006.35
2023-04-14T04:45:46.001Z,1006.37
2023-04-14T04:46:45.958Z,1006.34
2023-04-14T04:47:45.941Z,1006.34
2023-04-14T04:48:45.832Z,1006.32
2023-04-14T04:49:45.809Z,1006.33
2023-04-14T04:50:45.733Z,1006.28
2023-04-14T04:51:45.682Z,1006.32
2023-04-14T04:52:45.631Z,1006.31
2023-04-14T04:53:45.586Z,1006.29
2023-04-14T04:54:45.573Z,1006.31
2023-04-14T04:55:45.481Z,1006.33
2023-04-14T04:56:45.487Z,1006.34
2023-04-14T04:57:45.380Z,1006.36
2023-04-14T04:58:45.328Z,1006.36
2023-04-14T04:59:45.282Z,1006.36
2023-04-14T05:00:45.237Z,1006.34
2023-04-14T05:01:45.273Z,1006.36
2023-04-14T05:02:45.208Z,1006.33
2023-04-14T05:03:45.089Z,1006.35
2023-04-14T05:04:45.105Z,1006.37
2023-04-14T05:05:44.986Z,1006.41
2023-04-14T05:06:44.930Z,1006.40
2023-04-14T05:07:44.881Z,1006.40
2023-04-14T05:08:44.828Z,1006.44
2023-04-14T05:09:44.783Z,1006.47
2023-04-14T05:10:44.728Z,1006.46
2023-04-14T05:11:44.686Z,1006.45
2023-04-14T05:12:44.630Z,1006.46
2023-04-14T05:13:44.593Z,1006.50
2023-04-14T05:14:44.534Z,1006.47
2023-04-14T05:15:44.530Z,1006.47
2023-04-14T05:16:44.425Z,1006.48
2023-04-14T05:17:44.393Z,1006.47
2023-04-14T05:18:44.346Z,1006.45
2023-04-14T05:19:44.276Z,1006.46
2023-04-14T05:20:44.225Z,1006.47
2023-04-14T05:21:44.192Z,1006.43
2023-04-14T05:22:44.133Z,1006.48
2023-04-14T05:23:44.076Z,1006.48
2023-04-14T05:24:44.026Z,1006.52
2023-04-14T05:25:45.871Z,1006.50
2023-04-14T05:26:51.717Z,1006.52
2023-04-14T05:27:43.874Z,1006.51
2023-04-14T05:28:43.836Z,1006.54
2023-04-14T05:29:43.777Z,1006.53
2023-04-14T05:30:43.732Z,1006.53
2023-04-14T05:31:43.869Z,1006.55
2023-04-14T05:32:43.646Z,1006.54
2023-04-14T05:33:43.588Z,1006.46
2023-04-14T05:34:43.555Z,1006.54
2023-04-14T05:35:43.489Z,1006.53
2023-04-14T05:36:43.499Z,1006.50
2023-04-14T05:37:43.389Z,1006.49
2023-04-14T05:38:43.336Z,1006.49
2023-04-14T05:39:43.271Z,1006.50
2023-04-14T05:40:43.229Z,1006.48
2023-04-14T05:41:43.180Z,1006.49
2023-04-14T05:42:43.139Z,1006.50
2023-04-14T05:43:43.093Z,1006.51
2023-04-14T05:44:43.030Z,1006.49
2023-04-14T05:45:42.986Z,1006.50
2023-04-14T05:46:42.958Z,1006.54
2023-04-14T05:47:42.889Z,1006.55
2023-04-14T05:48:42.832Z,1006.53
2023-04-14T17:54:45.631Z,1003.35
2023-04-14T17:55:45.561Z,1003.36
2023-04-14T17:56:45.512Z,1003.36
2023-04-14T17:57:45.469Z,1003.36
2023-04-14T17:58:45.419Z,1003.35
2023-04-14T17:59:45.380Z,1003.36
2023-04-14T18:00:45.329Z,1003.38
2023-04-14T18:01:45.408Z,1003.33
2023-04-14T18:02:45.448Z,1003.34
2023-04-14T18:03:45.251Z,1003.34
2023-04-14T18:04:45.154Z,1003.35
2023-04-14T18:05:45.107Z,1003.34
2023-04-14T18:06:45.057Z,1003.37
2023-04-14T18:07:45.012Z,1003.37
2023-04-14T18:08:44.966Z,1003.38
2023-04-14T18:09:44.922Z,1003.40
2023-04-14T18:10:45.934Z,1003.42
2023-04-14T18:11:44.831Z,1003.43
2023-04-14T18:12:44.788Z,1003.41
2023-04-14T18:13:44.744Z,1003.42
2023-04-14T18:14:44.700Z,1003.45
2023-04-14T18:15:44.663Z,1003.44
2023-04-14T18:16:44.643Z,1003.49
2023-04-14T18:17:44.604Z,1003.47
2023-04-14T18:18:44.523Z,1003.51
2023-04-14T18:19:44.477Z,1003.50
2023-04-14T18:20:44.433Z,1003.53
2023-04-14T18:21:45.093Z,1003.57
2023-04-14T18:22:44.353Z,1003.58
2023-04-14T18:23:44.300Z,1003.60
2023-04-14T18:26:44.182Z,1003.65
2023-04-14T18:28:44.079Z,1003.67
2023-04-14T18:29:44.066Z,1003.74
2023-04-14T18:30:44.018Z,1003.76
2023-04-14T18:31:43.946Z,1003.71
2023-04-14T18:32:44.002Z,1003.75
2023-04-14T18:33:43.857Z,1003.75
2023-04-14T18:34:43.822Z,1003.76
2023-04-14T18:35:43.771Z,1003.79
2023-04-14T18:36:43.724Z,1003.79
2023-04-14T18:37:43.681Z,1003.83
2023-04-14T18:38:43.644Z,1003.83
2023-04-14T18:39:43.587Z,1003.83
2023-04-14T18:40:43.549Z,1003.82
2023-04-14T18:41:43.508Z,1003.85
2023-04-14T18:42:43.477Z,1003.85
2023-04-14T18:43:43.414Z,1003.85
2023-04-14T18:44:43.369Z,1003.88
2023-04-14T18:45:43.323Z,1003.90
2023-04-14T18:46:43.304Z,1003.92
2023-04-14T18:47:43.322Z,1003.92
2023-04-14T18:48:43.199Z,1003.98
2023-04-14T18:49:43.144Z,1003.96
2023-04-14T18:50:43.104Z,1003.96
2023-04-14T18:51:43.060Z,1003.96
2023-04-14T18:52:43.017Z,1003.97
2023-04-14T18:53:42.966Z,1003.94
2023-04-14T18:54:42.921Z,1004.00
2023-04-14T18:55:45.227Z,1004.00
2023-04-14T18:56:42.835Z,1003.97
2023-04-14T18:57:42.792Z,1003.99
2023-04-14T18:58:42.770Z,1003.99
2023-04-14T18:59:42.700Z,1004.01
2023-04-14T19:00:42.656Z,1004.01
2023-04-14T19:01:42.668Z,1004.03
2023-04-14T19:03:25.996Z,1004.04
2023-04-14T19:04:25.974Z,1004.01
2023-04-14T19:05:25.863Z,1004.05
2023-04-14T19:06:25.808Z,1004.04
2023-04-14T19:07:25.767Z,1004.04
2023-04-14T19:08:25.735Z,1004.04
2023-04-14T19:09:25.675Z,1004.02
2023-04-14T19:10:25.635Z,1004.04
2023-04-14T19:11:25.592Z,1004.03
2023-04-14T19:12:28.476Z,1004.04
2023-04-14T19:13:25.501Z,1004.08
2023-04-14T19:14:25.500Z,1004.08
2023-04-14T19:15:25.417Z,1004.04
2023-04-14T19:16:25.398Z,1004.05
2023-04-14T19:17:25.358Z,1004.07
2023-04-14T19:18:25.301Z,1004.04
2023-04-14T19:19:25.258Z,1004.14
2023-04-14T19:20:25.210Z,1004.07
2023-04-14T19:21:25.178Z,1004.14
2023-04-14T19:22:25.124Z,1004.12
2023-04-14T19:23:25.085Z,1004.11
2023-04-14T19:24:25.040Z,1004.13
2023-04-14T19:25:25.000Z,1004.12
2023-04-14T19:26:24.953Z,1004.10
2023-04-14T19:27:24.917Z,1004.15
2023-04-14T19:29:50.658Z,1004.12
2023-04-14T19:30:50.585Z,1004.13
2023-04-14T19:31:50.557Z,1004.11
2023-04-14T19:32:50.576Z,1004.14
2023-04-14T19:33:50.453Z,1004.15
2023-04-14T19:34:50.420Z,1004.16
2023-04-14T19:35:50.365Z,1004.14
2023-04-14T19:36:50.313Z,1004.16
2023-04-14T19:37:50.280Z,1004.18
2023-04-14T19:38:50.216Z,1004.16
2023-04-14T19:39:50.233Z,1004.17
2023-04-14T19:40:50.144Z,1004.12
2023-04-14T19:41:50.098Z,1004.14
2023-04-14T19:42:50.054Z,1004.15
2023-04-14T19:43:50.017Z,1004.14
2023-04-14T19:44:49.971Z,1004.15
2023-04-14T19:45:49.956Z,1004.15
2023-04-14T19:46:49.896Z,1004.17
2023-04-14T19:47:49.913Z,1004.18
2023-04-14T19:48:49.770Z,1004.14
2023-04-14T19:49:49.732Z,1004.14
2023-04-14T19:50:49.722Z,1004.15
2023-04-14T19:51:49.667Z,1004.16
2023-04-14T19:52:49.924Z,1004.15
2023-04-14T19:53:49.570Z,1004.13
2023-04-14T19:54:49.576Z,1004.13
2023-04-14T19:55:49.487Z,1004.17
2023-04-14T19:56:49.422Z,1004.18
2023-04-14T19:57:49.386Z,1004.19
2023-04-14T19:58:49.333Z,1004.16
2023-04-14T19:59:49.297Z,1004.19
2023-04-14T20:00:49.299Z,1004.17
2023-04-14T20:01:49.231Z,1004.16
2023-04-14T20:02:49.231Z,1004.19
2023-04-14T20:04:05.052Z,1004.17
2023-04-14T20:04:49.143Z,1004.21
2023-04-14T20:05:49.026Z,1004.17
2023-04-14T20:06:48.980Z,1004.19
2023-04-14T20:07:48.939Z,1004.18
2023-04-14T20:08:48.894Z,1004.16
2023-04-14T20:09:48.850Z,1004.14
2023-04-14T20:10:48.802Z,1004.19
2023-04-14T20:11:48.772Z,1004.17
2023-04-14T20:12:48.716Z,1004.15
2023-04-14T20:13:48.674Z,1004.18
2023-04-14T20:14:48.644Z,1004.17
2023-04-14T20:15:48.594Z,1004.19
2023-04-14T20:16:48.630Z,1004.18
2023-04-14T20:17:48.621Z,1004.21
2023-04-14T20:18:48.452Z,1004.21
2023-04-14T20:19:48.412Z,1004.17
2023-04-14T20:20:48.358Z,1004.20
2023-04-14T20:21:48.328Z,1004.21
2023-04-14T20:22:48.276Z,1004.20
2023-04-14T20:23:48.234Z,1004.20
2023-04-14T20:24:48.182Z,1004.19
2023-04-14T20:25:48.144Z,1004.20
2023-04-14T20:26:48.106Z,1004.18
2023-04-14T20:28:48.209Z,1004.18
2023-04-14T20:29:47.966Z,1004.16
2023-04-14T20:33:14.534Z,1004.21
2023-04-14T20:34:14.463Z,1004.18
2023-04-14T20:35:14.421Z,1004.19
2023-04-14T20:36:14.381Z,1004.18
2023-04-14T20:37:14.328Z,1004.23
2023-04-14T20:38:15.402Z,1004.19
2023-04-14T20:39:14.248Z,1004.18
2023-04-14T20:40:14.193Z,1004.18
2023-04-14T20:41:14.152Z,1004.18
2023-04-14T20:42:14.107Z,1004.18
2023-04-14T20:43:14.061Z,1004.20
2023-04-14T20:44:14.017Z,1004.22
2023-04-14T20:46:13.944Z,1004.22
2023-04-14T20:47:13.881Z,1004.27
2023-04-14T20:48:57.512Z,1004.27
2023-04-14T20:49:57.447Z,1004.29
2023-04-14T20:50:57.399Z,1004.30
2023-04-14T20:51:57.358Z,1004.27
2023-04-14T20:52:57.308Z,1004.27
2023-04-14T20:53:57.272Z,1004.31
2023-04-14T20:54:57.218Z,1004.28
2023-04-14T20:55:57.199Z,1004.27
2023-04-14T20:56:57.130Z,1004.27
2023-04-14T20:57:57.082Z,1004.25
2023-04-14T20:58:57.031Z,1004.24
2023-04-14T20:59:56.986Z,1004.24
2023-04-14T21:00:56.946Z,1004.26
2023-04-14T21:01:56.968Z,1004.27
2023-04-14T21:02:56.955Z,1004.24
2023-04-14T21:03:56.869Z,1004.28
2023-04-14T21:04:56.773Z,1004.31
2023-04-14T21:05:56.708Z,1004.33
2023-04-14T21:06:56.668Z,1004.27
2023-04-14T21:07:56.619Z,1004.30
2023-04-14T21:08:56.594Z,1004.32
2023-04-14T21:09:56.520Z,1004.31
2023-04-14T21:11:15.834Z,1004.30
2023-04-14T21:12:16.010Z,1004.33
2023-04-14T21:15:28.317Z,1004.29
2023-04-14T21:15:40.729Z,1004.31
2023-04-14T21:15:42.137Z,1004.30
2023-04-14T21:15:56.377Z,1004.31
2023-04-14T21:16:58.023Z,1004.32
2023-04-14T21:17:56.210Z,1004.29
2023-04-14T21:18:56.106Z,1004.31
2023-04-14T21:19:56.064Z,1004.30
2023-04-14T21:20:56.028Z,1004.31
2023-04-14T21:21:55.964Z,1004.30
2023-04-14T21:22:55.915Z,1004.37
2023-04-14T21:23:55.865Z,1004.33
2023-04-14T21:24:55.820Z,1004.38
2023-04-14T21:25:55.774Z,1004.38
2023-04-14T21:26:55.733Z,1004.37
2023-04-14T21:27:55.684Z,1004.37
2023-04-14T21:28:55.637Z,1004.37
2023-04-14T21:29:55.591Z,1004.41
2023-04-14T21:30:55.542Z,1004.41
2023-04-14T21:31:55.552Z,1004.46
2023-04-14T21:32:55.520Z,1004.40
2023-04-14T21:33:55.400Z,1004.44
2023-04-14T21:34:55.365Z,1004.36
2023-04-14T21:35:55.305Z,1004.35
2023-04-14T21:36:55.279Z,1004.40
2023-04-14T21:37:55.222Z,1004.38
2023-04-14T21:38:55.164Z,1004.38
2023-04-14T21:39:55.115Z,1004.33
2023-04-14T21:41:55.023Z,1004.36
2023-04-14T21:42:54.977Z,1004.42
2023-04-14T21:43:54.931Z,1004.39
2023-04-14T21:44:54.879Z,1004.39
2023-04-14T21:46:38.248Z,1004.37
2023-04-14T21:47:38.253Z,1004.38
2023-04-14T21:48:38.223Z,1004.40
2023-04-14T21:49:38.070Z,1004.39
2023-04-14T21:50:38.025Z,1004.37
2023-04-14T21:51:37.978Z,1004.38
2023-04-14T21:52:38.002Z,1004.38
2023-04-14T21:53:37.881Z,1004.34
2023-04-14T21:54:38.041Z,1004.37
2023-04-14T21:55:37.795Z,1004.35
2023-04-14T21:57:44.553Z,1004.32
2023-04-14T21:59:39.497Z,1004.36
2023-04-14T22:01:22.872Z,1004.37
2023-04-14T22:02:23.015Z,1004.40
2023-04-14T22:03:22.838Z,1004.41
2023-04-14T22:04:35.370Z,1004.37
2023-04-14T22:05:22.668Z,1004.43
2023-04-14T22:06:22.610Z,1004.42
2023-04-14T22:07:22.553Z,1004.42
2023-04-14T22:09:05.990Z,1004.48
2023-04-14T22:10:05.908Z,1004.43
2023-04-14T22:11:05.878Z,1004.45
2023-04-14T22:12:05.806Z,1004.41
2023-04-14T22:13:05.766Z,1004.44
2023-04-14T22:14:05.728Z,1004.42
2023-04-14T22:16:06.892Z,1004.45
2023-04-14T22:17:04.219Z,1004.45
2023-04-14T22:18:03.969Z,1004.44
2023-04-14T22:19:04.080Z,1004.43
2023-04-14T22:20:03.883Z,1004.41
2023-04-14T22:21:03.832Z,1004.50
2023-04-14T22:22:03.786Z,1004.44
2023-04-14T22:23:03.744Z,1004.47
2023-04-14T22:24:03.698Z,1004.44
2023-04-14T22:25:03.671Z,1004.47
2023-04-14T22:26:03.634Z,1004.44
2023-04-14T22:27:03.762Z,1004.45
2023-04-14T22:28:03.515Z,1004.49
2023-04-14T22:29:03.605Z,1004.51
2023-04-14T22:30:03.423Z,1004.46
2023-04-14T22:31:03.394Z,1004.47
2023-04-14T22:32:03.331Z,1004.46
2023-04-14T22:33:03.336Z,1004.51
2023-04-14T22:34:03.235Z,1004.46
2023-04-14T22:35:03.250Z,1004.42
2023-04-14T22:36:03.143Z,1004.46
2023-04-14T22:37:03.103Z,1004.48
2023-04-14T22:38:03.053Z,1004.49
2023-04-14T22:39:03.210Z,1004.46
2023-04-14T22:40:02.960Z,1004.50
2023-04-14T22:41:02.929Z,1004.46
2023-04-14T22:42:02.868Z,1004.47
2023-04-14T22:43:02.825Z,1004.47
2023-04-14T22:44:02.776Z,1004.49
2023-04-14T22:45:02.737Z,1004.50
2023-04-14T22:46:02.705Z,1004.49
2023-04-14T22:47:02.649Z,1004.50
2023-04-14T22:48:02.643Z,1004.51
2023-04-14T22:49:02.796Z,1004.51
2023-04-14T22:50:02.551Z,1004.52
2023-04-14T22:51:02.474Z,1004.52
2023-04-14T22:52:02.409Z,1004.55
2023-04-14T22:53:02.382Z,1004.53
2023-04-14T22:54:02.400Z,1004.53
2023-04-14T22:55:02.306Z,1004.55
2023-04-14T22:56:02.224Z,1004.55
2023-04-14T22:57:02.192Z,1004.48
2023-04-14T22:58:02.152Z,1004.52
2023-04-14T22:59:02.375Z,1004.53
2023-04-14T23:00:02.053Z,1004.55
2023-04-14T23:01:11.978Z,1004.56
2023-04-14T23:02:02.140Z,1004.54
2023-04-14T23:03:02.069Z,1004.54
2023-04-14T23:04:01.922Z,1004.58
2023-04-14T23:05:01.818Z,1004.57
2023-04-14T23:06:01.762Z,1004.58
2023-04-14T23:07:01.719Z,1004.60
2023-04-14T23:08:01.704Z,1004.58
2023-04-14T23:09:01.924Z,1004.60
2023-04-14T23:10:01.619Z,1004.61
2023-04-14T23:11:01.544Z,1004.61
2023-04-14T23:12:01.487Z,1004.62
2023-04-14T23:13:01.471Z,1004.61
2023-04-14T23:14:01.403Z,1004.54
2023-04-14T23:15:01.377Z,1004.56
2023-04-14T23:16:01.346Z,1004.58
2023-04-14T23:17:01.255Z,1004.57
2023-04-14T23:18:01.221Z,1004.54
2023-04-14T23:19:01.301Z,1004.55
2023-04-14T23:20:01.128Z,1004.58
2023-04-14T23:21:01.075Z,1004.60
2023-04-14T23:22:01.030Z,1004.60
2023-04-14T23:23:00.995Z,1004.61
2023-04-14T23:24:00.936Z,1004.59
2023-04-14T23:25:00.887Z,1004.61
2023-04-14T23:26:00.838Z,1004.58
2023-04-14T23:27:00.802Z,1004.59
2023-04-14T23:28:00.766Z,1004.56
2023-04-14T23:29:01.089Z,1004.61
2023-04-14T23:30:00.663Z,1004.54
2023-04-14T23:31:00.648Z,1004.60
2023-04-14T23:32:00.564Z,1004.60
2023-04-14T23:33:00.548Z,1004.61
2023-04-14T23:34:00.480Z,1004.59
2023-04-14T23:35:00.430Z,1004.61
2023-04-14T23:36:00.398Z,1004.60
2023-04-14T23:37:00.331Z,1004.58
2023-04-14T23:38:00.289Z,1004.64
2023-04-14T23:39:00.433Z,1004.59
2023-04-14T23:40:00.251Z,1004.65
2023-04-14T23:41:00.159Z,1004.61
2023-04-14T23:42:00.153Z,1004.62
2023-04-14T23:43:00.058Z,1004.62
2023-04-14T23:44:00.034Z,1004.59
2023-04-14T23:44:59.994Z,1004.60
2023-04-14T23:45:59.920Z,1004.55
2023-04-14T23:46:59.923Z,1004.60
2023-04-14T23:47:59.886Z,1004.57
2023-04-14T23:49:23.537Z,1004.56
2023-04-14T23:49:59.736Z,1004.57
2023-04-14T23:51:12.167Z,1004.55
2023-04-14T23:51:59.656Z,1004.53
2023-04-14T23:52:59.598Z,1004.51
2023-04-14T23:53:59.550Z,1004.52
2023-04-14T23:54:59.504Z,1004.46
2023-04-14T23:55:59.459Z,1004.46
2023-04-14T23:56:59.416Z,1004.48
2023-04-14T23:58:59.559Z,1004.49
2023-04-14T23:59:59.275Z,1004.47
